Greenbrier, Tennessee
Current Conditions -  °F | °C
As of 9:35 AM on Thursday 18 Dec 2014 (Local Time) from KM91 Reporting Station
Overcast Overcast  
Wind Chill: 24°   Ceiling: 3800
Heat Index: 30°   Visibility: 8mi
Dew Point: 30°   Wind: 6mph
Humidity: 100%   Direction: 20°NNE
Pressure: 30.27"   Gusts: NA
Location:  36.43°N, 86.8°W
Report Text: KM91 181535Z AUTO 02005KT 8SM SCT007 OVC038 M01/M01 A3027 RMK
Loading
Personal Weather Stations






























Interactive Weather Map New forecast layout! Learn more

10-Day Weather Forecast

Advertisements
Track Severe Weather on mobile